METAR Data
IDs: Format: Raw Decoded Include TAF

Data at: 1614 UTC 21 Sep 2018

KDSV 211554Z AUTO 17010G17KT 10SM CLR 28/20 A2993 RMK AO2 RAE53 SLP139 P0000 T02780200
KDSV 211454Z AUTO 18011G25KT 10SM -RA CLR 28/19 A2995 RMK AO2 PK WND 19026/1425 RAB25 SLP147 P0000 60000 T02780194 58019
KDSV 211354Z AUTO 17010G17KT 10SM CLR 27/20 A2998 RMK AO2 SLP154 T02670200
KDSV 211254Z AUTO 17010KT 10SM CLR 24/19 A2999 RMK AO2 SLP160 T02440194
KDSV 211154Z AUTO 17009KT 10SM CLR 23/18 A3001 RMK AO2 SLP167 T02330183 10233 20211 58006
KDSV 211054Z AUTO 16006KT 10SM CLR 23/18 A3002 RMK AO2 SLP171 T02280183
KDSV 210954Z AUTO 16010KT 10SM CLR 22/18 A3002 RMK AO2 SLP171 T02220183
KDSV 210854Z AUTO 16006KT 10SM CLR 22/18 A3003 RMK AO2 SLP173 T02220183 56007
KDSV 210754Z AUTO 13007KT 10SM CLR 22/18 A3003 RMK AO2 SLP174 T02170178
KDSV 210654Z AUTO 15005KT 10SM FEW110 21/18 A3004 RMK AO2 SLP179 T02110178
KDSV 210554Z AUTO 14008KT 10SM CLR 21/17 A3005 RMK AO2 SLP181 T02110172 10211 20194 58015
KDSV 210454Z AUTO 14006KT 10SM FEW100 21/17 A3007 RMK AO2 SLP188 T02060172 402440128
KDSV 210354Z AUTO 12007KT 10SM BKN065 OVC085 21/17 A3009 RMK AO2 SLP194 T02060172
KDSV 210254Z AUTO 14007KT 10SM SCT065 BKN110 19/17 A3009 RMK AO2 SLP197 T01940172 58007
KDSV 210154Z AUTO 18006KT 10SM FEW065 BKN120 20/17 A3011 RMK AO2 SLP203 T02000172
KDSV 210054Z AUTO 17004KT 10SM OVC075 21/17 A3012 RMK AO2 SLP208 T02060172
KDSV 202354Z AUTO 16006KT 10SM BKN080 21/17 A3012 RMK AO2 SLP205 T02110167 10244 20211 55004
KDSV 202254Z AUTO 16006KT 10SM CLR 22/17 A3011 RMK AO2 SLP203 T02170167
KDSV 202154Z AUTO 13005KT 10SM CLR 23/17 A3012 RMK AO2 SLP208 T02280172
KDSV 202054Z AUTO 09004KT 10SM SCT100 23/17 A3013 RMK AO2 SLP209 T02330172 56012
KDSV 201954Z AUTO 04003KT 10SM SCT120 24/17 A3014 RMK AO2 SLP211 T02390167
KDSV 201854Z AUTO 00000KT 10SM FEW028 23/16 A3014 RMK AO2 SLP213 T02280161
KDSV 201817Z AUTO VRB04KT 10SM SCT025 22/16 A3015 RMK AO2 T02220161
KDSV 201754Z AUTO 15006KT 10SM OVC025 22/16 A3016 RMK AO2 SLP220 T02170161 10222 20144 58018
KDSV 201654Z AUTO 14004KT 10SM OVC020 21/16 A3018 RMK AO2 SLP227 T02060156
KDSV 201554Z AUTO 13005KT 10SM OVC018 19/14 A3020 RMK AO2 SLP234 T01890144
KDSV 201454Z AUTO VRB05KT 10SM OVC016 18/14 A3022 RMK AO2 SLP239 T01830139 53005
KDSV 201354Z AUTO 17005KT 10SM OVC019 17/13 A3020 RMK AO2 SLP235 T01720133
KDSV 201254Z AUTO 17004KT 10SM OVC019 16/13 A3020 RMK AO2 SLP234 T01610128
KDSV 201154Z AUTO 16004KT 10SM OVC019 14/12 A3020 RMK AO2 SLP234 T01440122 10156 20128 51022
KDSV 201054Z AUTO 11003KT 10SM OVC019 13/12 A3017 RMK AO2 SLP225 T01330117
KDSV 200954Z AUTO 00000KT 10SM OVC019 14/12 A3016 RMK AO2 SLP221 T01390117
KDSV 200912Z AUTO 00000KT 10SM BKN019 13/12 A3015 RMK AO2 T01330117
KDSV 200854Z AUTO 19003KT 10SM FEW020 13/12 A3014 RMK AO2 SLP212 T01330117 55001
KDSV 200754Z AUTO 17006KT 10SM CLR 14/12 A3013 RMK AO2 SLP210 T01440122
KDSV 200710Z AUTO 00000KT 10SM SCT022 14/13 A3013 RMK AO2 T01440128
KDSV 200654Z AUTO 00000KT 10SM OVC022 14/13 A3014 RMK AO2 SLP212 T01440128
KDSV 200554Z AUTO 20003KT 10SM BKN022 16/13 A3014 RMK AO2 SLP212 T01560133 10189 20150 50001
KDSV 200454Z AUTO 16004KT 10SM CLR 16/13 A3014 RMK AO2 SLP212 T01560128 402390156
KDSV 200429Z AUTO 18004KT 10SM SCT029 16/13 A3015 RMK AO2 T01610128